METAR stanice u blizini

 

LYBE - Beograd / Surčin, Srbija
Ažurirano: 01/10/2020 07:00
Partly Cloudy
Partly Cloudy
 Pravac vetra ZJZ
Vetar: ZJZ 19 km/h
Temperatura: 13°C
Tačka rose: 11°C
Vlažnost: 88%
Pritisak: 1007 hPa
Oblaci: Partly Cloudy
Vidljivost: 10 km
Cloud details: Partly Cloudy 1372 m
2020/10/01 05:00 LYBE 010500Z 25010KT 9999 SCT045 13/11 Q1007 NOSIG
LYBT - Beograd / Batajnica, Srbija
Ažurirano: 01/10/2020 07:00
Partly Cloudy
Partly Cloudy
 Pravac vetra JZ
Vetar: JZ 9 km/h
Temperatura: 12°C
Tačka rose: 11°C
Vlažnost: 94%
Pritisak: 1007 hPa
Oblaci: Partly Cloudy
Vidljivost: 10 km
Cloud details: Partly Cloudy 1219 m
2020/10/01 05:00 LYBT 010500Z 22005KT 190V250 9999 SCT040 12/11 Q1007 NOSIG
LYVR - Vršac, Srbija
Ažurirano: 01/10/2020 07:00
Mostly Cloudy
Mostly Cloudy
 Pravac vetra ZJZ
Vetar: ZJZ 13 km/h
Temperatura: 13°C
Tačka rose: 12°C
Vlažnost: 94%
Pritisak: 1006 hPa
Oblaci: Mostly Cloudy
Vidljivost: 8 km
Cloud details: Mostly Cloudy 183 m
2020/10/01 05:00 LYVR 010500Z 25007KT 220V280 8000 BKN006 13/12 Q1006
 
LYKV - Lađevci, Srbija
Ažurirano: 01/10/2020 07:00
Slaba kiša, Pretežno oblačno
Slaba kiša, Pretežno oblačno
 Pravac vetra varies
Vetar: varies 4 km/h
Temperatura: 12°C
Tačka rose: 12°C
Vlažnost: 100%
Pritisak: 1009 hPa
Pregled: Light Rain
Oblaci: Mostly Cloudy
Vidljivost: 10 km
Cloud details: Few Clouds 914 m
Mostly Cloudy 1524 m
2020/10/01 05:00 LYKV 010500Z VRB02KT 9999 -RA FEW030 BKN050 12/12 Q1009 NOSIG
LYNI - Niš, Srbija
Ažurirano: 01/10/2020 07:00
Slaba kiša, Pretežno oblačno
Slaba kiša, Pretežno oblačno
 Pravac vetra SZ
Vetar: SZ 6 km/h
Temperatura: 12°C
Tačka rose: 10°C
Vlažnost: 88%
Pritisak: 1009 hPa
Pregled: Light Rain
Oblaci: Mostly Cloudy
Vidljivost: 10 km
Cloud details: Mostly Cloudy 1433 m
2020/10/01 05:00 LYNI 010500Z 32003KT 230V350 9999 -RA BKN047 12/10 Q1009 NOSIG
BKPR - Priština, Srbija
Ažurirano: 01/10/2020 07:00
Mostly Cloudy
Mostly Cloudy
 Pravac vetra calm
Vetar: Tišina
Temperatura: 10°C
Tačka rose: 8°C
Vlažnost: 88%
Pritisak: 1010 hPa
Oblaci: Mostly Cloudy
Vidljivost: 10 km
Cloud details: Mostly Cloudy 1829 m
2020/10/01 05:00 BKPR 010500Z 00000KT 9999 BKN060 10/08 Q1010 NOSIG
 
LHPP - Pecs / Pogany, Hungary
Ažurirano: 01/10/2020 06:45
Mostly Cloudy
Mostly Cloudy
 Pravac vetra ZSZ
Vetar: ZSZ 20 km/h
Temperatura: 13°C
Tačka rose: 9°C
Vlažnost: 77%
Pritisak: 1007 hPa
Oblaci: Mostly Cloudy
Vidljivost: 10 km
Cloud details: Few Clouds 701 m
Mostly Cloudy 2530 m
2020/10/01 04:45 LHPP 010445Z 29011KT 9999 FEW023 BKN083 13/09 Q1007
LHUD - Szeged, Hungary
Ažurirano: 04/07/2019 01:45
NOT Current
Vedro
Vedro
 Pravac vetra S
Vetar: S 7 km/h
Temperatura: 18°C
Tačka rose: 13°C
Vlažnost: 73%
Pritisak: 1019 hPa
Pregled: Vedro
Vidljivost: greater than 10 km
2019/07/03 23:45 LHUD 032345Z 35004KT CAVOK 18/13 Q1019
LRTR - Timisoara, Romania
Ažurirano: 01/10/2020 07:00
Mist, Oblačno
Mist, Oblačno
 Pravac vetra Z
Vetar: Z 19 km/h
Temperatura: 13°C
Tačka rose: 13°C
Vlažnost: 100%
Pritisak: 1005 hPa
Pregled: Mist
Oblaci: Oblačno
Vidljivost: 4 km
Cloud details: Mostly Cloudy 152 m
Oblačno 518 m
2020/10/01 05:00 LRTR 010500Z 27010KT 4000 BR BKN005 OVC017 13/13 Q1005 R11/290095
 
LRCV - Craiova, Romania
Ažurirano: 01/10/2020 07:00
Slaba kiša, Pretežno oblačno
Slaba kiša, Pretežno oblačno
 Pravac vetra ZJZ
Vetar: ZJZ 17 km/h
Temperatura: 13°C
Tačka rose: 11°C
Vlažnost: 88%
Pritisak: 1005 hPa
Pregled: Light Rain
Oblaci: Mostly Cloudy
Vidljivost: 10 km
Cloud details: Mostly Cloudy 1829 m
2020/10/01 05:00 LRCV 010500Z 24009KT 9999 -RA BKN060 13/11 Q1005
LBSF - Sofia, Bulgaria
Ažurirano: 01/10/2020 07:00
Oblačno
Oblačno
 Pravac vetra S
Vetar: S 11 km/h
Temperatura: 12°C
Tačka rose: 7°C
Vlažnost: 72%
Pritisak: 1009 hPa
Oblaci: Oblačno
Vidljivost: 10 km
Cloud details: Partly Cloudy 1494 m
Mostly Cloudy 1859 m
Oblačno 2621 m
2020/10/01 05:00 LBSF 010500Z 35006KT 320V020 9999 SCT049 BKN061 OVC086 12/07 Q1009 NOSIG
LWSK - Skoplje, Makedonija
Ažurirano: 01/10/2020 07:00
Partly Cloudy
Partly Cloudy
 Pravac vetra S
Vetar: S 4 km/h
Temperatura: 8°C
Tačka rose: 7°C
Vlažnost: 93%
Pritisak: 1011 hPa
Oblaci: Partly Cloudy
Vidljivost: 10 km
Cloud details: Partly Cloudy 2835 m
2020/10/01 05:00 LWSK 010500Z 36002KT 9999 SCT093 08/07 Q1011 NOSIG
 
LYPG - Podgorica, Crna Gora
Ažurirano: 01/10/2020 07:00
Few Clouds
Few Clouds
 Pravac vetra SSZ
Vetar: SSZ 7 km/h
Temperatura: 12°C
Tačka rose: 10°C
Vlažnost: 88%
Pritisak: 1011 hPa
Oblaci: Few Clouds
Vidljivost: 10 km
Cloud details: Few Clouds 701 m
2020/10/01 05:00 LYPG 010500Z 34004KT 9999 FEW023 12/10 Q1011 NOSIG
LQSA - Sarajevo, Bosna i Hercegovina
Ažurirano: 01/10/2020 07:00
Few Clouds
Few Clouds
 Pravac vetra varies
Vetar: varies 2 km/h
Temperatura: 7°C
Tačka rose: 7°C
Vlažnost: 100%
Pritisak: 1010 hPa
Oblaci: Few Clouds
Vidljivost: 8 km
Cloud details: Few Clouds 183 m
2020/10/01 05:00 LQSA 010500Z VRB01KT 8000 FEW006 07/07 Q1010 NOSIG
LDOS - Osijek, Hrvatksa
Ažurirano: 01/10/2020 07:00
Mostly Cloudy
Mostly Cloudy
 Pravac vetra Z
Vetar: Z 19 km/h
Temperatura: 14°C
Tačka rose: 9°C
Vlažnost: 72%
Pritisak: 1007 hPa
Oblaci: Mostly Cloudy
Vidljivost: 10 km
Cloud details: Mostly Cloudy 1311 m
2020/10/01 05:00 LDOS 010500Z 28010KT 9999 BKN043 14/09 Q1007